Time;durP1;ratioP1;P1;durP2;ratioP2;P2;SDS_P1;SDS_P2;PMS_P1;PMS_P2;Temp;Humidity;BMP_temperature;BMP_pressure;BME280_temperature;BME280_humidity;BME280_pressure;Samples;Min_cycle;Max_cycle;Signal;HPM_P1;HPM_P2
2023/02/17 00:00:26;;;;;;;14.80;9.90;;;;;;;;;;5100047;28;20236;-73
2023/02/17 00:02:57;;;;;;;13.90;9.67;;;;;;;;;;5100019;28;20231;-73
2023/02/17 00:05:25;;;;;;;12.80;10.23;;;;;;;;;;5099680;28;20236;-73
2023/02/17 00:07:53;;;;;;;16.40;10.43;;;;;;;;;;5099646;28;20255;-73
2023/02/17 00:10:21;;;;;;;12.90;9.53;;;;;;;;;;5099933;28;20202;-73
2023/02/17 00:12:49;;;;;;;17.63;10.57;;;;;;;;;;5099462;28;20226;-73
2023/02/17 00:15:17;;;;;;;14.57;9.47;;;;;;;;;;5099715;28;20206;-72
2023/02/17 00:17:45;;;;;;;16.10;9.70;;;;;;;;;;5099844;28;20213;-73
2023/02/17 00:20:15;;;;;;;13.10;9.60;;;;;;;;;;5099142;28;20251;-73
2023/02/17 00:22:42;;;;;;;16.33;10.40;;;;;;;;;;5099249;28;20221;-73
2023/02/17 00:25:10;;;;;;;16.67;10.40;;;;;;;;;;5099374;28;20229;-73
2023/02/17 00:27:38;;;;;;;14.63;10.60;;;;;;;;;;5099185;28;20293;-73
2023/02/17 00:30:07;;;;;;;15.90;10.33;;;;;;;;;;5099363;28;20205;-72
2023/02/17 00:32:36;;;;;;;77.97;42.87;;;;;;;;;;5098755;28;20232;-72
2023/02/17 00:35:04;;;;;;;17.53;12.00;;;;;;;;;;5098931;28;20578;-72
2023/02/17 00:37:35;;;;;;;14.37;9.77;;;;;;;;;;5099177;28;20244;-73
2023/02/17 00:40:04;;;;;;;15.77;10.37;;;;;;;;;;5099300;28;20205;-73
2023/02/17 00:42:32;;;;;;;15.47;9.60;;;;;;;;;;5098571;28;20641;-73
2023/02/17 00:45:00;;;;;;;16.53;8.70;;;;;;;;;;5098832;28;20722;-72
2023/02/17 00:47:28;;;;;;;16.60;9.97;;;;;;;;;;5099295;28;20687;-73
2023/02/17 00:49:56;;;;;;;14.27;9.80;;;;;;;;;;5098712;28;20250;-73
2023/02/17 00:52:24;;;;;;;14.80;9.50;;;;;;;;;;5098756;28;20249;-73
2023/02/17 00:54:53;;;;;;;12.70;9.27;;;;;;;;;;5098742;28;20687;-72
2023/02/17 00:57:21;;;;;;;16.53;10.30;;;;;;;;;;5098706;28;20205;-73
2023/02/17 00:59:49;;;;;;;11.07;9.27;;;;;;;;;;5098722;28;20565;-73
2023/02/17 01:02:17;;;;;;;16.60;10.10;;;;;;;;;;5098574;28;20289;-72
2023/02/17 01:04:45;;;;;;;15.07;9.57;;;;;;;;;;5098418;28;20229;-72
2023/02/17 01:07:16;;;;;;;16.67;10.37;;;;;;;;;;5098681;28;20205;-73
2023/02/17 01:09:44;;;;;;;15.07;10.60;;;;;;;;;;5098811;28;20215;-73
2023/02/17 01:12:14;;;;;;;18.10;10.83;;;;;;;;;;5098006;28;20260;-72
2023/02/17 01:14:42;;;;;;;14.13;9.80;;;;;;;;;;5098258;28;20293;-73
2023/02/17 01:17:10;;;;;;;16.33;10.40;;;;;;;;;;5098585;28;20215;-73
2023/02/17 01:19:37;;;;;;;15.17;9.37;;;;;;;;;;5098243;28;20212;-73
2023/02/17 01:22:06;;;;;;;13.63;10.00;;;;;;;;;;5098628;28;20205;-73
2023/02/17 01:24:34;;;;;;;16.60;9.60;;;;;;;;;;5098206;28;20236;-73
2023/02/17 01:27:02;;;;;;;15.10;10.80;;;;;;;;;;5098047;28;20229;-73
2023/02/17 01:29:31;;;;;;;15.00;10.20;;;;;;;;;;5098479;28;20216;-72
2023/02/17 01:31:59;;;;;;;19.47;11.10;;;;;;;;;;5098544;28;20217;-73
2023/02/17 01:34:27;;;;;;;17.77;10.60;;;;;;;;;;5098067;28;20275;-72
2023/02/17 01:36:55;;;;;;;19.40;10.40;;;;;;;;;;5097848;28;20252;-72
2023/02/17 01:39:23;;;;;;;18.93;10.87;;;;;;;;;;5098399;28;20205;-73
2023/02/17 01:41:51;;;;;;;19.03;11.10;;;;;;;;;;5097902;28;20232;-73
2023/02/17 01:44:20;;;;;;;16.00;9.83;;;;;;;;;;5097533;28;20232;-73
2023/02/17 01:46:50;;;;;;;14.93;10.17;;;;;;;;;;5097878;28;20236;-73
2023/02/17 01:49:22;;;;;;;17.23;11.00;;;;;;;;;;5098000;28;20290;-73
2023/02/17 01:51:52;;;;;;;17.80;10.20;;;;;;;;;;5097944;28;20616;-72
2023/02/17 01:54:22;;;;;;;19.17;11.30;;;;;;;;;;5098060;28;20313;-73
2023/02/17 01:56:51;;;;;;;20.80;11.43;;;;;;;;;;5098166;28;20265;-73
2023/02/17 01:59:20;;;;;;;19.77;11.10;;;;;;;;;;5098094;28;20233;-73
2023/02/17 02:01:51;;;;;;;21.67;11.50;;;;;;;;;;5098096;28;20201;-72
2023/02/17 02:04:20;;;;;;;16.43;10.53;;;;;;;;;;5097846;28;20233;-73
2023/02/17 02:06:48;;;;;;;18.97;11.40;;;;;;;;;;5097985;28;20233;-72
2023/02/17 02:09:18;;;;;;;19.90;10.87;;;;;;;;;;5098083;28;20201;-72
2023/02/17 02:11:47;;;;;;;17.60;10.67;;;;;;;;;;5097421;28;20217;-73
2023/02/17 02:14:16;;;;;;;15.73;9.73;;;;;;;;;;5097573;28;20225;-72
2023/02/17 02:16:49;;;;;;;19.20;11.10;;;;;;;;;;5097823;28;20206;-73
2023/02/17 02:19:41;;;;;;;17.00;10.30;;;;;;;;;;5097511;28;20545;-72
2023/02/17 02:22:24;;;;;;;19.63;10.47;;;;;;;;;;5082456;28;20237;-74
2023/02/17 02:24:59;;;;;;;18.17;10.47;;;;;;;;;;5097856;28;20241;-72
2023/02/17 02:27:48;;;;;;;17.87;10.23;;;;;;;;;;5097513;28;20228;-72
2023/02/17 02:30:37;;;;;;;15.93;10.33;;;;;;;;;;5097794;28;20284;-73
2023/02/17 02:33:10;;;;;;;19.17;9.80;;;;;;;;;;5097673;28;20225;-72
2023/02/17 02:35:45;;;;;;;23.90;10.13;;;;;;;;;;5097379;28;20564;-72
2023/02/17 02:38:14;;;;;;;18.03;11.50;;;;;;;;;;5097568;28;20319;-72
2023/02/17 02:40:46;;;;;;;19.83;11.23;;;;;;;;;;5097683;28;20205;-72
2023/02/17 02:43:14;;;;;;;17.33;11.27;;;;;;;;;;5097014;28;20221;-72
2023/02/17 02:45:42;;;;;;;17.87;11.70;;;;;;;;;;5097477;28;20236;-72
2023/02/17 02:48:12;;;;;;;19.63;11.80;;;;;;;;;;5097339;28;20676;-72
2023/02/17 02:50:50;;;;;;;16.83;10.60;;;;;;;;;;5097503;28;20221;-72
2023/02/17 02:53:28;;;;;;;22.53;12.33;;;;;;;;;;5097307;28;20256;-71
2023/02/17 02:56:01;;;;;;;18.70;12.17;;;;;;;;;;5098393;28;20201;-70
2023/02/17 02:58:33;;;;;;;18.90;10.90;;;;;;;;;;5100770;28;20288;-70
2023/02/17 03:01:04;;;;;;;17.77;11.33;;;;;;;;;;5101190;28;20289;-70
2023/02/17 03:03:35;;;;;;;23.60;13.13;;;;;;;;;;5101144;28;20229;-70
2023/02/17 03:06:06;;;;;;;21.93;12.40;;;;;;;;;;5100753;28;20645;-70
2023/02/17 03:08:36;;;;;;;23.57;13.20;;;;;;;;;;5101033;28;20217;-69
2023/02/17 03:11:04;;;;;;;25.57;15.17;;;;;;;;;;5101030;28;20205;-70
2023/02/17 03:13:33;;;;;;;25.50;16.37;;;;;;;;;;5100604;28;20225;-70
2023/02/17 03:16:01;;;;;;;38.90;18.57;;;;;;;;;;5100821;28;20572;-70
2023/02/17 03:18:31;;;;;;;30.83;18.73;;;;;;;;;;5100622;28;20542;-70
2023/02/17 03:21:03;;;;;;;36.77;18.87;;;;;;;;;;5100849;28;20209;-70
2023/02/17 03:23:32;;;;;;;34.60;16.97;;;;;;;;;;5100684;28;20225;-70
2023/02/17 03:26:00;;;;;;;34.00;19.70;;;;;;;;;;5100741;28;20237;-70
2023/02/17 03:28:27;;;;;;;25.90;16.27;;;;;;;;;;5100406;28;20212;-71
2023/02/17 03:30:56;;;;;;;28.87;15.73;;;;;;;;;;5100681;28;20205;-71
2023/02/17 03:33:24;;;;;;;24.57;13.93;;;;;;;;;;5100161;28;20704;-70
2023/02/17 03:35:51;;;;;;;28.73;13.83;;;;;;;;;;5100139;28;20269;-71
2023/02/17 03:38:21;;;;;;;30.97;15.67;;;;;;;;;;5100068;28;20639;-70
2023/02/17 03:40:49;;;;;;;23.50;13.97;;;;;;;;;;5100144;28;20268;-70
2023/02/17 03:43:17;;;;;;;27.30;14.53;;;;;;;;;;5095716;28;20460;-71
2023/02/17 03:45:45;;;;;;;26.47;14.33;;;;;;;;;;5100422;28;20216;-71
2023/02/17 03:48:13;;;;;;;29.50;14.43;;;;;;;;;;5100183;28;20986;-71
2023/02/17 03:50:41;;;;;;;22.83;14.20;;;;;;;;;;5099792;28;20515;-71
2023/02/17 03:53:10;;;;;;;28.33;15.60;;;;;;;;;;5100123;28;20468;-70
2023/02/17 03:55:40;;;;;;;22.67;13.77;;;;;;;;;;5099889;28;20527;-70
2023/02/17 03:58:08;;;;;;;27.40;15.77;;;;;;;;;;5099614;28;20528;-69
2023/02/17 04:00:36;;;;;;;29.53;15.70;;;;;;;;;;5099825;28;20451;-70
2023/02/17 04:03:04;;;;;;;30.77;16.10;;;;;;;;;;5099897;28;20226;-71
2023/02/17 04:05:33;;;;;;;35.13;16.73;;;;;;;;;;5099757;28;20471;-70
2023/02/17 04:08:01;;;;;;;36.10;18.03;;;;;;;;;;5099080;28;20491;-69
2023/02/17 04:10:29;;;;;;;36.23;17.77;;;;;;;;;;5099850;28;20471;-70
2023/02/17 04:12:58;;;;;;;32.80;17.27;;;;;;;;;;5097402;28;20264;-70
2023/02/17 04:15:26;;;;;;;33.37;17.00;;;;;;;;;;5099227;28;20680;-71
2023/02/17 04:17:54;;;;;;;40.87;19.53;;;;;;;;;;5099583;28;20217;-70
2023/02/17 04:20:22;;;;;;;39.60;19.13;;;;;;;;;;5099073;28;20229;-70
2023/02/17 04:22:50;;;;;;;32.23;16.40;;;;;;;;;;5099356;28;20554;-70
2023/02/17 04:25:18;;;;;;;29.57;15.47;;;;;;;;;;5099435;28;20216;-71
2023/02/17 04:27:46;;;;;;;24.03;14.93;;;;;;;;;;5098855;28;20257;-70
2023/02/17 04:30:16;;;;;;;29.97;15.90;;;;;;;;;;5098948;28;20564;-71
2023/02/17 04:32:44;;;;;;;26.47;13.33;;;;;;;;;;5099224;28;20221;-70
2023/02/17 04:35:12;;;;;;;21.27;13.73;;;;;;;;;;5099065;28;20440;-70
2023/02/17 04:37:40;;;;;;;22.33;13.63;;;;;;;;;;5092609;28;20275;-70
2023/02/17 04:40:09;;;;;;;22.00;14.23;;;;;;;;;;5098896;28;20447;-70
2023/02/17 04:42:37;;;;;;;29.07;14.67;;;;;;;;;;5098470;28;20265;-69
2023/02/17 04:45:06;;;;;;;41.10;19.63;;;;;;;;;;5098986;28;20440;-70
2023/02/17 04:47:35;;;;;;;38.37;17.50;;;;;;;;;;5099001;28;20229;-70
2023/02/17 04:50:04;;;;;;;37.57;18.03;;;;;;;;;;5099071;28;20205;-70
2023/02/17 04:52:32;;;;;;;39.07;21.27;;;;;;;;;;5098679;28;20575;-69
2023/02/17 04:54:59;;;;;;;41.83;21.20;;;;;;;;;;5099088;28;20209;-69
2023/02/17 04:57:27;;;;;;;44.07;20.90;;;;;;;;;;5098352;28;20691;-69
2023/02/17 04:59:55;;;;;;;53.37;23.57;;;;;;;;;;5098695;28;20680;-70
2023/02/17 05:02:25;;;;;;;27.47;17.37;;;;;;;;;;5098475;28;20233;-70
2023/02/17 05:04:55;;;;;;;25.13;14.93;;;;;;;;;;5098486;28;20240;-70
2023/02/17 05:07:23;;;;;;;27.93;16.00;;;;;;;;;;5098388;28;20747;-70
2023/02/17 05:09:50;;;;;;;26.90;13.60;;;;;;;;;;5098482;28;20212;-70
2023/02/17 05:12:18;;;;;;;23.60;14.63;;;;;;;;;;5098055;28;20247;-70
2023/02/17 05:14:46;;;;;;;22.93;15.27;;;;;;;;;;5098316;28;20256;-70
2023/02/17 05:17:14;;;;;;;25.90;14.30;;;;;;;;;;5098268;28;20284;-69
2023/02/17 05:19:42;;;;;;;27.53;15.67;;;;;;;;;;5097554;28;20228;-70
2023/02/17 05:22:12;;;;;;;19.20;12.07;;;;;;;;;;5098411;28;20202;-70
2023/02/17 05:24:40;;;;;;;20.47;11.10;;;;;;;;;;5098212;28;20768;-71
2023/02/17 05:27:08;;;;;;;22.67;12.00;;;;;;;;;;5098098;28;20208;-70
2023/02/17 05:29:36;;;;;;;16.33;10.93;;;;;;;;;;5098398;28;20202;-71
2023/02/17 05:32:04;;;;;;;18.27;10.97;;;;;;;;;;5098053;28;20229;-72
2023/02/17 05:34:32;;;;;;;21.30;12.00;;;;;;;;;;5097324;28;20229;-72
2023/02/17 05:37:00;;;;;;;17.63;10.83;;;;;;;;;;5092663;28;20233;-72
2023/02/17 05:39:30;;;;;;;20.17;11.33;;;;;;;;;;5097536;28;20301;-72
2023/02/17 05:41:58;;;;;;;18.73;10.57;;;;;;;;;;5097232;28;20673;-73
2023/02/17 05:44:26;;;;;;;18.10;11.53;;;;;;;;;;5097333;28;20285;-72
2023/02/17 05:46:54;;;;;;;15.60;10.47;;;;;;;;;;5097631;28;20248;-73
2023/02/17 05:49:21;;;;;;;15.47;11.23;;;;;;;;;;5094725;28;20226;-72
2023/02/17 05:51:50;;;;;;;18.13;10.83;;;;;;;;;;5097792;28;20208;-72
2023/02/17 05:54:18;;;;;;;20.17;10.73;;;;;;;;;;5097570;28;20240;-71
2023/02/17 05:56:47;;;;;;;18.53;10.50;;;;;;;;;;5097006;28;20743;-72
2023/02/17 05:59:15;;;;;;;16.73;11.27;;;;;;;;;;5098046;28;20227;-71
2023/02/17 06:01:43;;;;;;;17.20;10.90;;;;;;;;;;5097789;28;20253;-71
2023/02/17 06:04:11;;;;;;;17.73;10.70;;;;;;;;;;5097564;28;20726;-72
2023/02/17 06:06:39;;;;;;;16.83;10.90;;;;;;;;;;5097963;28;20224;-73
2023/02/17 06:09:07;;;;;;;14.97;10.87;;;;;;;;;;5097805;28;20236;-72
2023/02/17 06:11:35;;;;;;;17.77;10.60;;;;;;;;;;5097324;28;20293;-72
2023/02/17 06:14:04;;;;;;;20.27;10.93;;;;;;;;;;5097802;28;20229;-72
2023/02/17 06:16:32;;;;;;;19.60;11.57;;;;;;;;;;5097834;28;20236;-72
2023/02/17 06:19:03;;;;;;;18.83;11.03;;;;;;;;;;5097592;28;20201;-72
2023/02/17 06:21:32;;;;;;;19.30;10.90;;;;;;;;;;5097923;28;20209;-72
2023/02/17 06:24:00;;;;;;;17.10;10.40;;;;;;;;;;5097719;28;20260;-72
2023/02/17 06:26:28;;;;;;;17.30;11.20;;;;;;;;;;5097215;28;20233;-73
2023/02/17 06:28:56;;;;;;;18.10;10.90;;;;;;;;;;5097460;28;20243;-72
2023/02/17 06:31:25;;;;;;;16.90;10.70;;;;;;;;;;5099631;28;20209;-72
2023/02/17 06:33:53;;;;;;;16.27;10.30;;;;;;;;;;5101720;28;20235;-73
2023/02/17 06:36:22;;;;;;;20.33;11.33;;;;;;;;;;5101076;28;20292;-72
2023/02/17 06:38:50;;;;;;;22.90;11.17;;;;;;;;;;5101394;28;20233;-72
2023/02/17 06:41:17;;;;;;;17.17;10.03;;;;;;;;;;5101616;28;20209;-72
2023/02/17 06:43:46;;;;;;;17.10;10.70;;;;;;;;;;5101005;28;20253;-72
2023/02/17 06:46:14;;;;;;;20.70;10.43;;;;;;;;;;5101187;28;20294;-73
2023/02/17 06:48:43;;;;;;;20.53;10.70;;;;;;;;;;5101235;28;20229;-72
2023/02/17 06:51:11;;;;;;;18.60;11.60;;;;;;;;;;5100960;28;20209;-73
2023/02/17 06:53:39;;;;;;;18.90;10.80;;;;;;;;;;5100999;28;20590;-72
2023/02/17 06:56:07;;;;;;;17.77;10.93;;;;;;;;;;5100983;28;20292;-72
2023/02/17 06:58:36;;;;;;;15.70;10.07;;;;;;;;;;5100792;28;20224;-73
2023/02/17 07:01:04;;;;;;;14.93;10.23;;;;;;;;;;5101220;28;20210;-73
2023/02/17 07:03:32;;;;;;;20.53;10.90;;;;;;;;;;5100910;28;20593;-73
2023/02/17 07:06:02;;;;;;;15.27;9.60;;;;;;;;;;5101060;28;20205;-73
2023/02/17 07:08:30;;;;;;;16.27;9.63;;;;;;;;;;5101156;28;20233;-73
2023/02/17 07:11:04;;;;;;;20.20;11.23;;;;;;;;;;5100776;28;20212;-73
2023/02/17 07:13:32;;;;;;;18.67;10.87;;;;;;;;;;5099118;28;20743;-73
2023/02/17 07:16:00;;;;;;;24.03;15.93;;;;;;;;;;5097208;28;20193;-73
2023/02/17 07:18:28;;;;;;;16.33;10.30;;;;;;;;;;5099048;28;20190;-72
2023/02/17 07:20:57;;;;;;;16.27;10.87;;;;;;;;;;5099269;28;20201;-73
2023/02/17 07:23:26;;;;;;;15.07;10.33;;;;;;;;;;5099074;28;20221;-73
2023/02/17 07:25:54;;;;;;;15.90;10.47;;;;;;;;;;5099225;28;20256;-72
2023/02/17 07:28:22;;;;;;;25.70;11.10;;;;;;;;;;5099940;28;20220;-64
2023/02/17 07:30:50;;;;;;;14.30;11.33;;;;;;;;;;5097848;28;20265;-64
2023/02/17 07:33:18;;;;;;;17.43;11.37;;;;;;;;;;5100241;28;20229;-64
2023/02/17 07:35:47;;;;;;;21.17;11.53;;;;;;;;;;5099786;28;20264;-64
2023/02/17 07:38:18;;;;;;;19.70;12.70;;;;;;;;;;5100149;28;20240;-64
2023/02/17 07:40:47;;;;;;;15.10;11.03;;;;;;;;;;5091629;28;20289;-64
2023/02/17 07:43:15;;;;;;;22.90;11.97;;;;;;;;;;5094487;28;20232;-64
2023/02/17 07:45:43;;;;;;;15.70;11.33;;;;;;;;;;5099930;28;20740;-64
2023/02/17 07:48:11;;;;;;;24.40;13.27;;;;;;;;;;5100219;28;20255;-64
2023/02/17 07:50:39;;;;;;;22.60;11.30;;;;;;;;;;5100095;28;20210;-64
2023/02/17 07:53:07;;;;;;;20.57;12.97;;;;;;;;;;5099797;28;20269;-69
2023/02/17 07:55:35;;;;;;;21.90;12.80;;;;;;;;;;5099813;28;20244;-71
2023/02/17 07:58:05;;;;;;;16.17;11.73;;;;;;;;;;5100011;28;20235;-68
2023/02/17 08:00:33;;;;;;;20.47;12.77;;;;;;;;;;5100012;28;20209;-71
2023/02/17 08:03:01;;;;;;;20.50;11.70;;;;;;;;;;5099696;28;20696;-70
2023/02/17 08:05:28;;;;;;;22.67;12.47;;;;;;;;;;5096689;28;20571;-70
2023/02/17 08:13:25;;;;;;;21.53;12.27;;;;;;;;;;5092904;28;20241;-72
2023/02/17 08:15:53;;;;;;;17.90;12.13;;;;;;;;;;5099372;28;20251;-73
2023/02/17 08:18:21;;;;;;;23.03;14.47;;;;;;;;;;5099272;28;20276;-72
2023/02/17 08:20:50;;;;;;;26.33;14.27;;;;;;;;;;5095123;28;20256;-72
2023/02/17 08:23:19;;;;;;;25.30;13.80;;;;;;;;;;5093318;28;20261;-72
2023/02/17 08:25:48;;;;;;;25.67;14.17;;;;;;;;;;5086822;28;20206;-73
2023/02/17 08:28:16;;;;;;;27.37;15.23;;;;;;;;;;5098887;28;20205;-73
2023/02/17 08:30:45;;;;;;;33.53;15.20;;;;;;;;;;5098891;28;20708;-74
2023/02/17 08:33:16;;;;;;;27.70;15.00;;;;;;;;;;5099127;28;20225;-74
2023/02/17 08:35:44;;;;;;;28.10;15.93;;;;;;;;;;5092449;28;20232;-74
2023/02/17 08:38:13;;;;;;;25.60;15.13;;;;;;;;;;5094980;28;20245;-73
2023/02/17 08:40:41;;;;;;;29.63;15.40;;;;;;;;;;5089871;28;20332;-72
2023/02/17 08:43:09;;;;;;;22.47;13.43;;;;;;;;;;5095672;28;20229;-73
2023/02/17 08:45:37;;;;;;;20.03;11.40;;;;;;;;;;5098588;28;20238;-72
2023/02/17 08:48:06;;;;;;;19.53;11.47;;;;;;;;;;5098449;28;20225;-74
2023/02/17 08:50:34;;;;;;;26.43;13.20;;;;;;;;;;5098149;28;20249;-74
2023/02/17 08:53:03;;;;;;;23.03;13.13;;;;;;;;;;5098732;28;20226;-71
2023/02/17 08:55:31;;;;;;;27.90;13.17;;;;;;;;;;5098222;28;20218;-72
2023/02/17 08:58:15;;;;;;;22.53;13.90;;;;;;;;;;5093634;28;20236;-72
2023/02/17 09:00:43;;;;;;;22.50;14.23;;;;;;;;;;5094193;28;20649;-72
2023/02/17 09:03:16;;;;;;;23.20;14.00;;;;;;;;;;5097742;28;20304;-71
2023/02/17 09:05:44;;;;;;;25.37;14.73;;;;;;;;;;5095563;28;20213;-70
2023/02/17 09:08:12;;;;;;;23.33;13.73;;;;;;;;;;5097981;28;20233;-72
2023/02/17 09:10:44;;;;;;;24.37;14.13;;;;;;;;;;5098392;28;20221;-73
2023/02/17 09:13:12;;;;;;;74.23;40.83;;;;;;;;;;5097952;28;20225;-73
2023/02/17 09:15:41;;;;;;;59.47;35.80;;;;;;;;;;5087811;28;20237;-73
2023/02/17 09:18:09;;;;;;;30.97;19.43;;;;;;;;;;5096693;28;20204;-73
2023/02/17 09:20:39;;;;;;;25.77;13.93;;;;;;;;;;5094780;28;20248;-72
2023/02/17 09:23:07;;;;;;;23.77;13.13;;;;;;;;;;5096952;28;20221;-72
2023/02/17 09:25:35;;;;;;;22.77;13.90;;;;;;;;;;5097675;28;20296;-73
2023/02/17 09:28:03;;;;;;;20.43;13.33;;;;;;;;;;5097476;28;20287;-73
2023/02/17 09:30:31;;;;;;;25.13;13.70;;;;;;;;;;5097289;28;20225;-72
2023/02/17 09:32:59;;;;;;;26.73;14.23;;;;;;;;;;5094661;28;20300;-70
2023/02/17 09:35:28;;;;;;;20.50;13.13;;;;;;;;;;5094199;28;20342;-73
2023/02/17 09:37:57;;;;;;;20.93;13.10;;;;;;;;;;5097554;28;20241;-72
2023/02/17 09:40:32;;;;;;;26.27;12.87;;;;;;;;;;5094736;28;20194;-73
2023/02/17 09:43:00;;;;;;;24.53;13.87;;;;;;;;;;5096658;28;20251;-75
2023/02/17 09:45:32;;;;;;;22.13;13.10;;;;;;;;;;5097299;28;20679;-72
2023/02/17 09:48:02;;;;;;;23.67;12.77;;;;;;;;;;5097931;28;20219;-70
2023/02/17 09:50:34;;;;;;;22.80;13.63;;;;;;;;;;5097968;28;20320;-73
2023/02/17 09:53:06;;;;;;;19.87;12.90;;;;;;;;;;5096596;28;20626;-72
2023/02/17 09:55:36;;;;;;;22.93;14.27;;;;;;;;;;5095470;28;20214;-74
2023/02/17 09:58:06;;;;;;;22.07;13.60;;;;;;;;;;5097283;28;20198;-74
2023/02/17 10:00:38;;;;;;;22.20;13.63;;;;;;;;;;5097538;28;20235;-73
2023/02/17 10:03:10;;;;;;;26.77;13.57;;;;;;;;;;5097388;28;20701;-73
2023/02/17 10:05:44;;;;;;;22.77;13.90;;;;;;;;;;5099730;28;20200;-73
2023/02/17 10:08:16;;;;;;;20.40;13.07;;;;;;;;;;5104379;28;20205;-73
2023/02/17 10:10:47;;;;;;;26.07;15.53;;;;;;;;;;5098377;28;20287;-74
2023/02/17 10:13:17;;;;;;;25.97;13.40;;;;;;;;;;5097999;28;20236;-72
2023/02/17 10:15:48;;;;;;;22.70;14.07;;;;;;;;;;5104457;28;20244;-73
2023/02/17 10:18:19;;;;;;;23.93;13.97;;;;;;;;;;5104133;28;20555;-71
2023/02/17 10:20:51;;;;;;;24.83;13.83;;;;;;;;;;5104164;28;20292;-72
2023/02/17 10:23:22;;;;;;;20.30;12.97;;;;;;;;;;5104191;28;20591;-73
2023/02/17 10:26:02;;;;;;;20.17;13.43;;;;;;;;;;5104224;28;20654;-73
2023/02/17 10:28:38;;;;;;;22.97;13.20;;;;;;;;;;5097118;28;20549;-72
2023/02/17 10:31:10;;;;;;;25.10;14.13;;;;;;;;;;5103733;28;20711;-72
2023/02/17 10:33:45;;;;;;;23.63;13.67;;;;;;;;;;5104191;28;20225;-72
2023/02/17 10:36:25;;;;;;;23.67;13.87;;;;;;;;;;5101068;28;20205;-71
2023/02/17 10:39:00;;;;;;;26.00;13.70;;;;;;;;;;5103521;28;20229;-71
2023/02/17 10:41:32;;;;;;;21.57;14.40;;;;;;;;;;5103011;28;20296;-73
2023/02/17 10:44:01;;;;;;;19.90;13.57;;;;;;;;;;5103483;28;20218;-72
2023/02/17 10:46:30;;;;;;;19.67;12.87;;;;;;;;;;5103797;28;20265;-72
2023/02/17 10:48:58;;;;;;;23.37;13.80;;;;;;;;;;5104002;28;20255;-73
2023/02/17 10:51:28;;;;;;;21.93;13.93;;;;;;;;;;5103558;28;20260;-69
2023/02/17 10:54:00;;;;;;;21.40;14.10;;;;;;;;;;5103939;28;20224;-72
2023/02/17 10:56:32;;;;;;;23.00;13.23;;;;;;;;;;5103599;28;20213;-71
2023/02/17 10:59:05;;;;;;;25.17;13.93;;;;;;;;;;5103687;28;20702;-70
2023/02/17 11:01:33;;;;;;;20.13;13.67;;;;;;;;;;5103942;28;20201;-71
2023/02/17 11:04:02;;;;;;;25.97;14.03;;;;;;;;;;5103965;28;20249;-71
2023/02/17 11:06:32;;;;;;;25.07;14.83;;;;;;;;;;5103921;28;20227;-72
2023/02/17 11:09:02;;;;;;;23.97;14.53;;;;;;;;;;5103965;28;20201;-70
2023/02/17 11:11:31;;;;;;;27.40;14.07;;;;;;;;;;5103877;28;20236;-68
2023/02/17 11:14:02;;;;;;;23.43;14.53;;;;;;;;;;5103835;28;20310;-70
2023/02/17 11:16:34;;;;;;;28.57;14.50;;;;;;;;;;5103736;28;20209;-71
2023/02/17 11:19:03;;;;;;;19.80;13.73;;;;;;;;;;5100951;28;20244;-70
2023/02/17 11:21:33;;;;;;;30.40;13.77;;;;;;;;;;5100694;28;20206;-69
2023/02/17 11:24:04;;;;;;;24.07;13.70;;;;;;;;;;5100828;28;20255;-71
2023/02/17 11:26:35;;;;;;;19.23;13.37;;;;;;;;;;5100501;28;20243;-71
2023/02/17 11:29:10;;;;;;;22.97;13.50;;;;;;;;;;5086147;28;20295;-71
2023/02/17 11:31:38;;;;;;;30.07;14.50;;;;;;;;;;5093592;28;20225;-69
2023/02/17 11:34:13;;;;;;;23.97;14.00;;;;;;;;;;5099906;28;20591;-69
2023/02/17 11:36:43;;;;;;;23.50;13.77;;;;;;;;;;5087367;28;20238;-71
2023/02/17 11:39:21;;;;;;;32.60;18.83;;;;;;;;;;5100069;28;20651;-66
2023/02/17 11:41:49;;;;;;;29.53;15.60;;;;;;;;;;5099921;28;20193;-67
2023/02/17 11:44:23;;;;;;;27.63;14.83;;;;;;;;;;5100089;28;20230;-68
2023/02/17 11:46:54;;;;;;;23.93;13.50;;;;;;;;;;5088632;28;20233;-70
2023/02/17 11:49:41;;;;;;;27.33;14.33;;;;;;;;;;5099974;28;20210;-69
2023/02/17 11:52:14;;;;;;;24.47;13.77;;;;;;;;;;5100055;28;20235;-70
2023/02/17 11:54:48;;;;;;;20.97;13.27;;;;;;;;;;5090093;28;20291;-72
2023/02/17 11:57:22;;;;;;;22.57;12.90;;;;;;;;;;5099986;28;20205;-73
2023/02/17 11:59:56;;;;;;;23.60;14.13;;;;;;;;;;5085617;28;20206;-64
2023/02/17 12:02:31;;;;;;;192.27;110.67;;;;;;;;;;5093775;28;20201;-65
2023/02/17 12:05:12;;;;;;;58.33;37.03;;;;;;;;;;5099610;28;20201;-65
2023/02/17 12:07:45;;;;;;;30.90;16.50;;;;;;;;;;5089635;28;20246;-65
2023/02/17 12:10:19;;;;;;;26.90;15.00;;;;;;;;;;5099675;28;20248;-65
2023/02/17 12:12:56;;;;;;;28.73;15.20;;;;;;;;;;5098951;28;20703;-65
2023/02/17 12:15:31;;;;;;;27.77;17.43;;;;;;;;;;5099510;28;20206;-65
2023/02/17 12:18:06;;;;;;;25.43;15.33;;;;;;;;;;5089515;28;20205;-69
2023/02/17 12:20:38;;;;;;;25.40;14.53;;;;;;;;;;5099274;28;20209;-69
2023/02/17 12:23:13;;;;;;;26.30;14.00;;;;;;;;;;5098412;28;20294;-69
2023/02/17 12:25:45;;;;;;;20.83;13.90;;;;;;;;;;5098433;28;20215;-69
2023/02/17 12:28:27;;;;;;;25.57;13.87;;;;;;;;;;5097198;28;20204;-69
2023/02/17 12:31:01;;;;;;;23.77;14.37;;;;;;;;;;5097258;28;20276;-69
2023/02/17 12:33:36;;;;;;;22.20;13.50;;;;;;;;;;5098062;28;20221;-69
2023/02/17 12:36:05;;;;;;;22.23;14.03;;;;;;;;;;5097842;28;20201;-69
2023/02/17 12:38:34;;;;;;;25.20;15.03;;;;;;;;;;5095643;28;20229;-68
2023/02/17 12:41:07;;;;;;;22.83;12.30;;;;;;;;;;5096458;28;20626;-69
2023/02/17 12:43:39;;;;;;;23.13;13.40;;;;;;;;;;5098442;28;20306;-68
2023/02/17 12:46:09;;;;;;;27.57;13.07;;;;;;;;;;5095186;28;20228;-69
2023/02/17 12:48:40;;;;;;;25.80;16.20;;;;;;;;;;5096786;28;20716;-69
2023/02/17 12:51:12;;;;;;;24.10;13.27;;;;;;;;;;5094628;28;20630;-73
2023/02/17 12:53:43;;;;;;;17.03;12.47;;;;;;;;;;5097409;28;20221;-73
2023/02/17 12:56:32;;;;;;;22.03;13.27;;;;;;;;;;5097482;28;20247;-73
2023/02/17 12:59:05;;;;;;;24.37;13.30;;;;;;;;;;5097208;28;20194;-73
2023/02/17 13:01:34;;;;;;;19.37;13.17;;;;;;;;;;5097553;28;20254;-73
2023/02/17 13:04:02;;;;;;;23.03;13.17;;;;;;;;;;5097550;28;20245;-74
2023/02/17 13:06:35;;;;;;;21.83;13.13;;;;;;;;;;5097405;28;20233;-73
2023/02/17 13:09:08;;;;;;;21.90;14.13;;;;;;;;;;5097456;28;20208;-73
2023/02/17 13:11:38;;;;;;;25.00;14.40;;;;;;;;;;5096735;28;20225;-73
2023/02/17 13:14:12;;;;;;;23.77;12.67;;;;;;;;;;5093941;28;20946;-73
2023/02/17 13:16:43;;;;;;;19.27;12.50;;;;;;;;;;5095183;28;20678;-75
2023/02/17 13:19:17;;;;;;;21.87;12.67;;;;;;;;;;5095470;28;20212;-74
2023/02/17 13:21:51;;;;;;;16.50;11.50;;;;;;;;;;5093171;28;20197;-75
2023/02/17 13:24:31;;;;;;;17.23;12.17;;;;;;;;;;5095219;28;20220;-75
2023/02/17 13:27:09;;;;;;;19.63;12.50;;;;;;;;;;5095831;28;20205;-75
2023/02/17 13:29:37;;;;;;;19.87;12.80;;;;;;;;;;5096999;28;20237;-75
2023/02/17 13:32:06;;;;;;;17.30;11.90;;;;;;;;;;5097704;28;20651;-74
2023/02/17 13:34:36;;;;;;;18.20;11.90;;;;;;;;;;5098246;28;20312;-74
2023/02/17 13:37:15;;;;;;;19.47;11.93;;;;;;;;;;5097974;28;20704;-75
2023/02/17 13:39:43;;;;;;;20.00;11.67;;;;;;;;;;5097996;28;20241;-75
2023/02/17 13:42:29;;;;;;;16.43;11.30;;;;;;;;;;5097096;28;20616;-75
2023/02/17 13:44:58;;;;;;;20.53;11.00;;;;;;;;;;5097924;28;20288;-75
2023/02/17 13:47:29;;;;;;;22.40;12.10;;;;;;;;;;5097850;28;20573;-75
2023/02/17 13:49:57;;;;;;;20.00;12.57;;;;;;;;;;5098035;28;20216;-75
2023/02/17 13:52:26;;;;;;;19.73;11.17;;;;;;;;;;5097564;28;20229;-74
2023/02/17 13:54:54;;;;;;;17.27;9.20;;;;;;;;;;5098150;28;20208;-74
2023/02/17 13:57:23;;;;;;;10.03;6.07;;;;;;;;;;5097907;28;20201;-75
2023/02/17 13:59:51;;;;;;;13.43;7.07;;;;;;;;;;5097670;28;20636;-72
2023/02/17 14:02:21;;;;;;;12.60;8.07;;;;;;;;;;5097849;28;20201;-73
2023/02/17 14:05:06;;;;;;;12.53;7.60;;;;;;;;;;5097631;28;20656;-73
2023/02/17 14:07:34;;;;;;;13.60;8.13;;;;;;;;;;5097652;28;20267;-70
2023/02/17 14:10:02;;;;;;;12.17;6.83;;;;;;;;;;5097671;28;20210;-70
2023/02/17 14:12:30;;;;;;;8.70;5.33;;;;;;;;;;5097506;28;20260;-71
2023/02/17 14:14:58;;;;;;;11.07;5.53;;;;;;;;;;5096590;28;20226;-69
2023/02/17 14:17:31;;;;;;;11.57;5.93;;;;;;;;;;5097353;28;20225;-69
2023/02/17 14:20:00;;;;;;;10.60;6.57;;;;;;;;;;5096681;28;20712;-69
2023/02/17 14:22:29;;;;;;;10.70;5.20;;;;;;;;;;5096924;28;20228;-68
2023/02/17 14:24:58;;;;;;;9.90;5.70;;;;;;;;;;5095897;28;20206;-67
2023/02/17 14:27:26;;;;;;;10.30;5.40;;;;;;;;;;5096192;28;20202;-68
2023/02/17 14:29:54;;;;;;;9.60;5.23;;;;;;;;;;5095927;28;20205;-66
2023/02/17 14:32:26;;;;;;;8.23;5.10;;;;;;;;;;5096243;28;20218;-66
2023/02/17 14:35:06;;;;;;;9.97;4.87;;;;;;;;;;5094256;28;20223;-67
2023/02/17 14:37:35;;;;;;;9.60;5.50;;;;;;;;;;5096276;28;20252;-68
2023/02/17 14:40:04;;;;;;;8.73;6.23;;;;;;;;;;5096809;28;20205;-68